MHTG/TGU METAR and TAF weather

Enter ICAO airport designator
Station Type Date Time Source
MHTG METAR 2022/12/04 06:00 UTC NOAA

MHTG 040600Z 36012KT 9999 BKN028 19/17 Q1020 A3012 NOSIG


Station Type Date Time Source
MHTG Decoded METAR 2022/12/04 06:00 UTC NOAA

Tegucigalpa, Honduras (MHTG) 14-03N 087-13W 1007M
Dec 04, 2022 - 01:00 AM EST / 2022.12.04 0600 UTC
Wind: from the N (360 degrees) at 14 MPH (12 KT):0
Visibility: greater than 7 mile(s):0
Sky conditions: mostly cloudy
Temperature: 66 F (19 C)
Dew Point: 62 F (17 C)
Relative Humidity: 88%
Pressure (altimeter): 30.12 in. Hg (1019 hPa)
ob: MHTG 040600Z 36012KT 9999 BKN028 19/17 Q1020 A3012 NOSIG
cycle: 6

Station Type Date Time Source
MHTG TAF 2022/12/04 06:45 UTC NOAA

TAF MHTG 040500Z 0406/0506 VRB05KT 9999 SCT030 TX27/0421Z TN17/0412Z
BECMG 0414/0416 01010KT SCT028
BECMG 0502/0504 VRB05KT BKN026

Example: see airport list